createdAt,value
2022-09-06T00:00:40.500Z,2.12
2022-09-06T00:04:40.703Z,2.4
2022-09-06T00:08:40.523Z,2.1
2022-09-06T00:12:40.679Z,2.1
2022-09-06T00:16:40.708Z,2.15
2022-09-06T00:20:40.404Z,3.5
2022-09-06T00:24:40.415Z,2.45
2022-09-06T00:28:40.444Z,2.7
2022-09-06T00:32:40.629Z,1.85
2022-09-06T00:36:40.423Z,2.15
2022-09-06T00:40:40.655Z,1.8
2022-09-06T00:44:40.577Z,2.4
2022-09-06T00:48:40.570Z,2
2022-09-06T00:52:40.559Z,1.8
2022-09-06T00:56:39.504Z,1.5
2022-09-06T01:00:40.619Z,2.15
2022-09-06T01:04:40.476Z,2.1
2022-09-06T01:08:40.590Z,1.5
2022-09-06T01:12:40.503Z,2
2022-09-06T01:16:41.300Z,1.8
2022-09-06T01:20:40.580Z,1.73
2022-09-06T01:24:41.333Z,1.45
2022-09-06T01:28:40.437Z,1.87
2022-09-06T01:32:40.561Z,1.73
2022-09-06T01:36:54.305Z,1.42
2022-09-06T01:40:40.525Z,2.08
2022-09-06T01:44:40.442Z,1.42
2022-09-06T01:48:40.341Z,1.73
2022-09-06T01:52:40.580Z,1.62
2022-09-06T01:56:40.420Z,1.4
2022-09-06T02:00:40.418Z,1.75
2022-09-06T02:04:40.450Z,1.67
2022-09-06T02:08:40.276Z,1.87
2022-09-06T02:12:40.831Z,1.77
2022-09-06T02:16:40.532Z,1.5
2022-09-06T02:20:40.478Z,1.45
2022-09-06T02:24:40.501Z,1.48
2022-09-06T02:28:40.386Z,1.77
2022-09-06T02:32:40.567Z,1.65
2022-09-06T02:36:40.502Z,1.35
2022-09-06T02:40:40.437Z,1.3
2022-09-06T02:44:40.421Z,1.35
2022-09-06T02:48:40.455Z,1.5
2022-09-06T02:52:40.525Z,1.52
2022-09-06T02:56:41.234Z,1.2
2022-09-06T03:00:41.081Z,1.08
2022-09-06T03:04:40.511Z,1.12
2022-09-06T03:08:40.469Z,1.6
2022-09-06T03:12:41.066Z,1.37
2022-09-06T03:16:40.612Z,1.3
2022-09-06T03:20:40.478Z,1.3
2022-09-06T03:24:41.249Z,1.65
2022-09-06T03:28:40.558Z,1.17
2022-09-06T03:32:39.255Z,1.42
2022-09-06T03:36:40.440Z,1.23
2022-09-06T03:40:40.851Z,1.62
2022-09-06T03:44:40.538Z,1.17
2022-09-06T03:48:40.439Z,1.17
2022-09-06T03:52:39.987Z,1.1
2022-09-06T03:56:40.449Z,1.45
2022-09-06T04:00:40.579Z,1.25
2022-09-06T04:04:40.445Z,1.62
2022-09-06T04:08:40.570Z,1.42
2022-09-06T04:12:40.391Z,1.02
2022-09-06T04:16:40.475Z,1.23
2022-09-06T04:20:40.440Z,1.3
2022-09-06T04:24:40.487Z,1.58
2022-09-06T04:28:40.947Z,1.65
2022-09-06T04:32:40.705Z,1.55
2022-09-06T04:36:40.421Z,1.58
2022-09-06T04:40:40.596Z,1.55
2022-09-06T04:44:40.537Z,1.8
2022-09-06T04:48:40.618Z,1.45
2022-09-06T04:52:40.526Z,1.55
2022-09-06T04:56:40.586Z,1.3
2022-09-06T05:00:40.584Z,1.2
2022-09-06T05:04:40.473Z,1.4
2022-09-06T05:08:40.782Z,1.02
2022-09-06T05:12:44.261Z,1.73
2022-09-06T05:16:40.986Z,1.7
2022-09-06T05:20:40.749Z,1.8
2022-09-06T05:24:40.538Z,1.52
2022-09-06T05:28:40.663Z,2.15
2022-09-06T05:32:40.688Z,1.45
2022-09-06T05:36:39.370Z,2.37
2022-09-06T05:40:40.744Z,1.4
2022-09-06T05:44:40.481Z,1.65
2022-09-06T05:48:40.481Z,1.45
2022-09-06T05:52:40.447Z,1.5
2022-09-06T05:56:40.579Z,1.42
2022-09-06T06:00:40.597Z,1.55
2022-09-06T06:04:40.524Z,2.15
2022-09-06T06:08:40.413Z,1.48
2022-09-06T06:12:40.572Z,1.6
2022-09-06T06:16:40.369Z,1.85
2022-09-06T06:20:41.012Z,2.08
2022-09-06T06:24:40.430Z,2
2022-09-06T06:28:40.497Z,2.22
2022-09-06T06:32:40.281Z,1.9
2022-09-06T06:36:39.909Z,1.6
2022-09-06T06:40:39.620Z,1.5
2022-09-06T06:44:40.661Z,1.6
2022-09-06T06:48:39.758Z,2.17
2022-09-06T06:52:40.678Z,1.87
2022-09-06T06:56:40.792Z,2.33
2022-09-06T07:00:40.681Z,1.58
2022-09-06T07:04:40.517Z,1.65
2022-09-06T07:08:40.466Z,2.03
2022-09-06T07:12:40.452Z,1.73
2022-09-06T07:16:40.498Z,1.9
2022-09-06T07:24:40.371Z,2.15
2022-09-06T07:28:40.477Z,2.4
2022-09-06T07:32:40.736Z,2.58
2022-09-06T07:36:40.916Z,2.25
2022-09-06T07:40:40.514Z,2.67
2022-09-06T07:44:40.484Z,2.35
2022-09-06T07:48:40.592Z,2.15
2022-09-06T07:56:40.436Z,2.42
2022-09-06T08:00:40.641Z,2.58
2022-09-06T08:04:40.487Z,2.12
2022-09-06T08:12:40.421Z,2.17
2022-09-06T08:16:40.738Z,2.78
2022-09-06T08:20:40.510Z,2.6
2022-09-06T08:24:40.510Z,2.45
2022-09-06T08:28:40.481Z,2.6
2022-09-06T08:32:40.538Z,2.85
2022-09-06T08:36:40.585Z,2.75
2022-09-06T08:40:40.577Z,2.97
2022-09-06T08:44:57.047Z,2.97
2022-09-06T08:48:40.479Z,3.2
2022-09-06T08:52:49.582Z,2.62
2022-09-06T08:56:41.104Z,2.75
2022-09-06T09:00:40.630Z,2.8
2022-09-06T09:04:40.450Z,3.45
2022-09-06T09:08:41.035Z,2.85
2022-09-06T09:12:40.836Z,2.92
2022-09-06T09:16:40.667Z,3.45
2022-09-06T09:20:40.488Z,2.95
2022-09-06T09:24:40.490Z,2.65
2022-09-06T09:28:40.489Z,3.1
2022-09-06T09:32:40.427Z,3.08
2022-09-06T09:36:40.661Z,3.28
2022-09-06T09:40:40.602Z,3.28
2022-09-06T09:44:40.386Z,2.92
2022-09-06T09:48:40.538Z,2.8
2022-09-06T09:52:40.477Z,2.87
2022-09-06T09:56:40.616Z,3.83
2022-09-06T10:00:40.744Z,2.92
2022-09-06T10:08:40.852Z,3.3
2022-09-06T10:12:40.552Z,2.92
2022-09-06T10:16:40.928Z,3.9
2022-09-06T10:20:40.484Z,2.87
2022-09-06T10:24:40.469Z,3.35
2022-09-06T10:28:40.546Z,3.7
2022-09-06T10:32:41.124Z,3.4
2022-09-06T10:36:41.076Z,2.85
2022-09-06T10:40:40.707Z,3.35
2022-09-06T10:44:40.627Z,3.42
2022-09-06T10:48:40.517Z,3.87
2022-09-06T10:52:40.781Z,3.55
2022-09-06T10:56:40.393Z,3.78
2022-09-06T11:00:40.817Z,3.3
2022-09-06T11:08:48.262Z,3.95
2022-09-06T11:12:40.478Z,3.55
2022-09-06T11:16:40.526Z,3.92
2022-09-06T11:20:40.522Z,2.8
2022-09-06T11:24:40.749Z,3.42
2022-09-06T11:28:40.534Z,3.25
2022-09-06T11:32:40.722Z,4.15
2022-09-06T11:36:40.283Z,3.75
2022-09-06T11:40:40.607Z,3.87
2022-09-06T11:44:40.643Z,2.95
2022-09-06T11:48:40.501Z,3.5
2022-09-06T11:52:40.428Z,3.67
2022-09-06T11:56:39.397Z,3.47
2022-09-06T12:00:40.694Z,3.33
2022-09-06T12:04:40.943Z,2.6
2022-09-06T12:08:40.852Z,3.4
2022-09-06T12:12:40.617Z,4.18
2022-09-06T12:16:39.739Z,3.17
2022-09-06T12:20:40.638Z,3.62
2022-09-06T12:24:40.455Z,3.4
2022-09-06T12:28:40.499Z,3.17
2022-09-06T12:32:40.430Z,3.1
2022-09-06T12:36:41.236Z,3.42
2022-09-06T12:40:40.386Z,3.37
2022-09-06T12:44:40.516Z,2.8
2022-09-06T12:48:40.419Z,3.4
2022-09-06T12:52:40.444Z,3.4
2022-09-06T12:56:40.560Z,3
2022-09-06T13:00:40.639Z,3.75
2022-09-06T13:04:40.608Z,2.87
2022-09-06T13:08:40.453Z,3.1
2022-09-06T13:12:40.523Z,3.47
2022-09-06T13:16:40.624Z,3.62
2022-09-06T13:20:40.758Z,3.22
2022-09-06T13:24:44.561Z,3.22
2022-09-06T13:28:41.196Z,3.47
2022-09-06T13:32:40.694Z,3.37
2022-09-06T13:36:40.096Z,2.7
2022-09-06T13:41:06.768Z,3.22
2022-09-06T13:44:40.382Z,2.87
2022-09-06T13:48:40.787Z,2.53
2022-09-06T13:52:40.412Z,2.78
2022-09-06T13:56:40.453Z,2.8
2022-09-06T14:00:40.474Z,2.75
2022-09-06T14:04:40.545Z,3.15
2022-09-06T14:12:40.513Z,2.9
2022-09-06T14:16:39.986Z,2.7
2022-09-06T14:20:40.993Z,3.35
2022-09-06T14:24:40.445Z,2.85
2022-09-06T14:28:40.764Z,2.33
2022-09-06T14:32:40.624Z,2.7
2022-09-06T14:36:40.813Z,3.03
2022-09-06T14:40:40.506Z,2.42
2022-09-06T14:44:41.131Z,2.65
2022-09-06T14:48:42.385Z,2.83
2022-09-06T14:52:40.486Z,2.35
2022-09-06T14:56:40.399Z,3.15
2022-09-06T15:00:40.504Z,3.12
2022-09-06T15:04:40.763Z,2.87
2022-09-06T15:08:40.535Z,3.17
2022-09-06T15:12:40.922Z,2.8
2022-09-06T15:16:39.856Z,2.78
2022-09-06T15:20:40.547Z,3.17
2022-09-06T15:24:40.762Z,2.9
2022-09-06T15:28:40.341Z,3.25
2022-09-06T15:32:40.390Z,2.92
2022-09-06T15:36:40.563Z,2.97
2022-09-06T15:40:40.374Z,2.65
2022-09-06T15:44:40.276Z,2.87
2022-09-06T15:48:40.075Z,2.47
2022-09-06T15:52:40.579Z,2.5
2022-09-06T15:56:40.461Z,2.78
2022-09-06T16:00:40.727Z,3.03
2022-09-06T16:04:40.663Z,2.6
2022-09-06T16:08:40.438Z,3.83
2022-09-06T16:12:41.242Z,3.5
2022-09-06T16:16:41.127Z,2.97
2022-09-06T16:20:40.676Z,2.72
2022-09-06T16:24:40.543Z,2.67
2022-09-06T16:28:41.149Z,3
2022-09-06T16:32:40.497Z,2.58
2022-09-06T16:36:40.486Z,2.78
2022-09-06T16:40:40.718Z,2.9
2022-09-06T16:44:40.552Z,2.7
2022-09-06T16:48:40.421Z,3
2022-09-06T16:52:41.193Z,3.12
2022-09-06T16:56:40.533Z,3.12
2022-09-06T17:00:40.962Z,3.62
2022-09-06T17:04:40.461Z,2.75
2022-09-06T17:08:40.497Z,2.9
2022-09-06T17:12:40.485Z,3.17
2022-09-06T17:16:40.594Z,2.92
2022-09-06T17:20:40.544Z,3.08
2022-09-06T17:24:40.461Z,2.8
2022-09-06T17:28:40.540Z,3.55
2022-09-06T17:32:41.109Z,3.37
2022-09-06T17:36:41.062Z,2.35
2022-09-06T17:40:40.879Z,3.15
2022-09-06T17:44:40.408Z,3.3
2022-09-06T17:48:40.451Z,3.53
2022-09-06T17:52:40.394Z,3.2
2022-09-06T17:56:39.575Z,2.92
2022-09-06T18:00:40.644Z,3.58
2022-09-06T18:04:40.886Z,3.25
2022-09-06T18:08:40.390Z,3.2
2022-09-06T18:12:39.291Z,3.05
2022-09-06T18:16:40.580Z,2.75
2022-09-06T18:20:40.483Z,3.17
2022-09-06T18:24:40.542Z,3.83
2022-09-06T18:28:40.459Z,2.55
2022-09-06T18:32:40.557Z,2.8
2022-09-06T18:36:40.460Z,3.53
2022-09-06T18:40:41.297Z,3.17
2022-09-06T18:44:40.516Z,3.55
2022-09-06T18:48:40.753Z,3.5
2022-09-06T18:52:40.464Z,2.92
2022-09-06T18:56:40.984Z,3.33
2022-09-06T19:00:40.643Z,3.33
2022-09-06T19:04:40.436Z,3.2
2022-09-06T19:08:40.419Z,3.75
2022-09-06T19:12:40.468Z,3.22
2022-09-06T19:16:40.659Z,3.53
2022-09-06T19:20:40.469Z,3.28
2022-09-06T19:24:40.439Z,3.17
2022-09-06T19:28:40.479Z,4
2022-09-06T19:32:40.568Z,3.65
2022-09-06T19:36:40.494Z,3.87
2022-09-06T19:40:40.319Z,3.78
2022-09-06T19:44:40.511Z,3.45
2022-09-06T19:48:40.415Z,3.9
2022-09-06T19:52:40.422Z,3.3
2022-09-06T19:56:40.482Z,3.4
2022-09-06T20:00:40.560Z,3.28
2022-09-06T20:04:40.505Z,3.35
2022-09-06T20:08:40.527Z,3.7
2022-09-06T20:12:40.744Z,4.05
2022-09-06T20:16:42.089Z,3.55
2022-09-06T20:20:40.686Z,3.58
2022-09-06T20:24:40.401Z,3.58
2022-09-06T20:28:40.408Z,3.28
2022-09-06T20:32:40.347Z,3.03
2022-09-06T20:36:40.411Z,3.3
2022-09-06T20:40:40.660Z,3.05
2022-09-06T20:44:40.507Z,3.75
2022-09-06T20:48:44.417Z,3.28
2022-09-06T20:52:40.490Z,3.62
2022-09-06T20:56:40.468Z,3.35
2022-09-06T21:00:40.528Z,3.72
2022-09-06T21:04:40.316Z,3.17
2022-09-06T21:08:42.819Z,3.28
2022-09-06T21:12:40.487Z,3.3
2022-09-06T21:16:41.259Z,3.5
2022-09-06T21:20:40.598Z,3.5
2022-09-06T21:24:40.432Z,3.35
2022-09-06T21:28:40.678Z,3.67
2022-09-06T21:32:40.621Z,3.3
2022-09-06T21:36:40.118Z,3.67
2022-09-06T21:40:41.238Z,2.9
2022-09-06T21:44:40.852Z,3.47
2022-09-06T21:48:40.522Z,3.12
2022-09-06T21:52:40.503Z,3.4
2022-09-06T21:56:40.546Z,3.37
2022-09-06T22:00:39.801Z,3.22
2022-09-06T22:04:39.302Z,3.12
2022-09-06T22:08:40.470Z,3.95
2022-09-06T22:12:40.589Z,3.7
2022-09-06T22:16:41.107Z,3.42
2022-09-06T22:20:40.484Z,3.4
2022-09-06T22:24:40.460Z,3.58
2022-09-06T22:28:40.618Z,4.3
2022-09-06T22:32:40.475Z,3.8
2022-09-06T22:36:40.458Z,3.65
2022-09-06T22:40:40.477Z,3.25
2022-09-06T22:44:40.414Z,3.62
2022-09-06T22:48:40.550Z,3.1
2022-09-06T22:52:40.502Z,3.2
2022-09-06T22:56:39.508Z,2.8
2022-09-06T23:00:40.489Z,2.95
2022-09-06T23:04:40.480Z,3.03
2022-09-06T23:08:40.534Z,3.53
2022-09-06T23:12:40.431Z,3.05
2022-09-06T23:16:40.533Z,3
2022-09-06T23:20:40.459Z,3.35
2022-09-06T23:24:40.498Z,2.33
2022-09-06T23:28:40.408Z,2.95
2022-09-06T23:32:40.662Z,3.08
2022-09-06T23:36:40.535Z,3.08
2022-09-06T23:40:40.640Z,2.85
2022-09-06T23:44:40.419Z,3.45
2022-09-06T23:48:40.521Z,2.75
2022-09-06T23:52:39.259Z,3.4
2022-09-06T23:56:40.524Z,3.58
